Time;durP1;ratioP1;P1;durP2;ratioP2;P2;SDS_P1;SDS_P2;PMS_P1;PMS_P2;Temp;Humidity;BMP_temperature;BMP_pressure;BME280_temperature;BME280_humidity;BME280_pressure;Samples;Min_cycle;Max_cycle;Signal;HPM_P1;HPM_P2
2023/03/29 00:00:59;;;;;;;;;;;7.50;75.20;;;;;;5073690;28;20007;-28
2023/03/29 00:03:25;;;;;;;;;;;7.60;75.30;;;;;;5073381;28;20303;-28
2023/03/29 00:05:56;;;;;;;;;;;7.50;75.20;;;;;;5072991;28;19913;-30
2023/03/29 00:08:25;;;;;;;;;;;7.50;75.20;;;;;;5072857;28;20394;-29
2023/03/29 00:10:50;;;;;;;;;;;7.50;75.20;;;;;;5072863;28;19919;-28
2023/03/29 00:13:17;;;;;;;;;;;7.50;75.20;;;;;;5072838;28;19917;-26
2023/03/29 00:15:42;;;;;;;;;;;7.50;75.30;;;;;;5072891;28;19913;-31
2023/03/29 00:18:08;;;;;;;;;;;7.60;75.30;;;;;;5072785;28;19912;-27
2023/03/29 00:20:33;;;;;;;;;;;7.60;75.30;;;;;;5072805;28;19920;-27
2023/03/29 00:22:59;;;;;;;;;;;7.60;75.30;;;;;;5072480;28;20032;-28
2023/03/29 00:25:25;;;;;;;;;;;7.60;75.30;;;;;;5072782;28;19912;-27
2023/03/29 00:27:50;;;;;;;;;;;7.60;75.30;;;;;;5072703;28;20261;-34
2023/03/29 00:30:16;;;;;;;;;;;7.60;75.30;;;;;;5072642;28;19974;-29
2023/03/29 00:32:41;;;;;;;;;;;7.60;75.30;;;;;;5072653;28;19919;-32
2023/03/29 00:35:07;;;;;;;;;;;7.70;75.30;;;;;;5072644;28;19916;-34
2023/03/29 00:37:33;;;;;;;;;;;7.70;75.30;;;;;;5072463;28;20144;-28
2023/03/29 00:39:59;;;;;;;;;;;7.70;75.30;;;;;;5072653;28;19912;-27
2023/03/29 00:42:24;;;;;;;;;;;7.70;75.30;;;;;;5071895;28;19912;-27
2023/03/29 00:45:04;;;;;;;;;;;7.70;75.20;;;;;;5072374;28;19962;-27
2023/03/29 00:47:33;;;;;;;;;;;7.80;75.30;;;;;;5072226;28;19917;-27
2023/03/29 00:50:01;;;;;;;;;;;7.80;75.30;;;;;;5072418;28;20411;-32
2023/03/29 00:52:29;;;;;;;;;;;7.80;75.30;;;;;;5072148;28;19912;-28
2023/03/29 00:54:57;;;;;;;;;;;7.80;75.30;;;;;;5072384;28;20360;-27
2023/03/29 00:57:23;;;;;;;;;;;7.70;75.30;;;;;;5072270;28;19917;-29
2023/03/29 00:59:49;;;;;;;;;;;7.70;75.30;;;;;;5072588;28;19935;-28
2023/03/29 01:02:20;;;;;;;;;;;7.70;75.40;;;;;;5072074;28;19912;-33
2023/03/29 01:04:53;;;;;;;;;;;7.70;75.50;;;;;;5071846;28;19989;-35
2023/03/29 01:07:20;;;;;;;;;;;7.70;75.50;;;;;;5071949;28;19986;-30
2023/03/29 01:10:15;;;;;;;;;;;7.70;75.50;;;;;;5071576;28;19935;-28
2023/03/29 01:12:46;;;;;;;;;;;7.70;75.50;;;;;;5071249;28;20289;-28
2023/03/29 01:15:14;;;;;;;;;;;7.70;75.50;;;;;;5071827;28;19919;-36
2023/03/29 01:17:42;;;;;;;;;;;7.70;75.40;;;;;;5071640;28;19916;-28
2023/03/29 01:20:14;;;;;;;;;;;7.70;75.40;;;;;;5072093;28;19963;-26
2023/03/29 01:22:50;;;;;;;;;;;7.80;75.50;;;;;;5071324;28;19997;-26
2023/03/29 01:25:15;;;;;;;;;;;7.80;75.40;;;;;;5071438;28;20317;-26
2023/03/29 01:27:49;;;;;;;;;;;7.80;75.40;;;;;;5071354;28;19920;-27
2023/03/29 01:30:19;;;;;;;;;;;7.80;75.40;;;;;;5071370;28;19912;-34
2023/03/29 01:32:49;;;;;;;;;;;7.80;75.30;;;;;;5071528;28;19999;-27
2023/03/29 01:35:23;;;;;;;;;;;7.80;75.30;;;;;;5071339;28;19908;-28
2023/03/29 01:37:55;;;;;;;;;;;7.80;75.30;;;;;;5071255;28;19931;-40
2023/03/29 01:40:21;;;;;;;;;;;7.80;75.20;;;;;;5071348;28;19908;-34
2023/03/29 01:42:50;;;;;;;;;;;7.80;75.20;;;;;;5071276;28;19912;-34
2023/03/29 01:45:34;;;;;;;;;;;7.90;75.20;;;;;;5071395;28;19908;-30
2023/03/29 01:48:02;;;;;;;;;;;7.90;75.10;;;;;;5071336;28;19948;-26
2023/03/29 01:51:02;;;;;;;;;;;8.00;75.10;;;;;;5071420;28;20308;-25
2023/03/29 01:53:40;;;;;;;;;;;8.00;75.00;;;;;;5068818;28;20360;-27
2023/03/29 01:56:07;;;;;;;;;;;8.00;75.00;;;;;;5071131;28;20410;-33
2023/03/29 01:58:35;;;;;;;;;;;8.00;75.00;;;;;;5071380;28;19915;-27
2023/03/29 02:01:04;;;;;;;;;;;8.00;74.90;;;;;;5070958;28;19909;-27
2023/03/29 02:03:30;;;;;;;;;;;8.00;74.90;;;;;;5071197;28;19924;-27
2023/03/29 02:05:58;;;;;;;;;;;8.00;74.80;;;;;;5071515;28;19979;-27
2023/03/29 02:08:24;;;;;;;;;;;8.10;74.90;;;;;;5070977;28;20007;-35
2023/03/29 02:10:50;;;;;;;;;;;8.10;74.90;;;;;;5071036;28;20099;-28
2023/03/29 02:13:16;;;;;;;;;;;8.10;74.80;;;;;;5071542;28;19954;-31
2023/03/29 02:15:46;;;;;;;;;;;8.10;74.80;;;;;;5071625;28;19963;-27
2023/03/29 02:18:13;;;;;;;;;;;8.10;74.70;;;;;;5070095;28;19908;-28
2023/03/29 02:20:41;;;;;;;;;;;8.10;74.70;;;;;;5071615;28;19908;-28
2023/03/29 02:23:13;;;;;;;;;;;8.20;74.80;;;;;;5071002;28;20493;-27
2023/03/29 02:25:39;;;;;;;;;;;8.10;74.70;;;;;;5071573;28;19981;-27
2023/03/29 02:28:05;;;;;;;;;;;8.20;74.80;;;;;;5071122;28;20408;-29
2023/03/29 02:30:36;;;;;;;;;;;8.10;74.70;;;;;;5071202;28;20001;-28
2023/03/29 02:33:08;;;;;;;;;;;8.20;74.80;;;;;;5071037;28;19908;-27
2023/03/29 02:35:38;;;;;;;;;;;8.20;74.80;;;;;;5071117;28;19909;-28
2023/03/29 02:38:06;;;;;;;;;;;8.20;74.70;;;;;;5071127;28;19909;-26
2023/03/29 02:40:32;;;;;;;;;;;8.20;74.70;;;;;;5071093;28;19934;-27
2023/03/29 02:42:59;;;;;;;;;;;8.20;74.70;;;;;;5071249;28;20344;-27
2023/03/29 02:45:26;;;;;;;;;;;8.20;74.80;;;;;;5071062;28;19966;-27
2023/03/29 02:47:53;;;;;;;;;;;8.20;74.80;;;;;;5071227;28;19974;-28
2023/03/29 02:50:19;;;;;;;;;;;8.20;74.90;;;;;;5071310;28;20003;-26
2023/03/29 02:52:58;;;;;;;;;;;8.20;75.00;;;;;;5070875;28;19962;-38
2023/03/29 02:55:24;;;;;;;;;;;8.20;75.10;;;;;;5070878;28;19912;-30
2023/03/29 02:57:50;;;;;;;;;;;8.20;75.20;;;;;;5070912;28;20348;-27
2023/03/29 03:00:17;;;;;;;;;;;8.20;75.20;;;;;;5070817;28;19908;-28
2023/03/29 03:02:43;;;;;;;;;;;8.20;75.30;;;;;;5069364;28;19962;-38
2023/03/29 03:05:08;;;;;;;;;;;8.20;75.40;;;;;;5072296;28;19912;-26
2023/03/29 03:07:34;;;;;;;;;;;8.10;75.50;;;;;;5074435;28;19944;-30
2023/03/29 03:09:59;;;;;;;;;;;8.10;75.70;;;;;;5074421;28;19908;-29
2023/03/29 03:12:25;;;;;;;;;;;8.10;75.80;;;;;;5074420;28;19908;-29
2023/03/29 03:14:51;;;;;;;;;;;8.10;76.00;;;;;;5074706;28;19916;-26
2023/03/29 03:17:17;;;;;;;;;;;8.00;76.00;;;;;;5074336;28;20150;-27
2023/03/29 03:19:43;;;;;;;;;;;8.10;76.20;;;;;;5074411;28;19916;-29
2023/03/29 03:22:08;;;;;;;;;;;8.00;76.30;;;;;;5074022;28;19943;-26
2023/03/29 03:24:34;;;;;;;;;;;8.00;76.50;;;;;;5074260;28;19912;-28
2023/03/29 03:26:59;;;;;;;;;;;8.00;76.50;;;;;;5074182;28;20339;-32
2023/03/29 03:29:25;;;;;;;;;;;8.00;76.90;;;;;;5074078;28;19914;-35
2023/03/29 03:31:54;;;;;;;;;;;8.00;76.70;;;;;;5074050;28;19974;-30
2023/03/29 03:34:20;;;;;;;;;;;8.00;76.80;;;;;;5074292;28;19915;-27
2023/03/29 03:36:46;;;;;;;;;;;8.00;76.80;;;;;;5074108;28;19909;-28
2023/03/29 03:39:12;;;;;;;;;;;8.00;76.90;;;;;;5073978;28;20386;-36
2023/03/29 03:41:37;;;;;;;;;;;8.00;77.00;;;;;;5074012;28;19912;-25
2023/03/29 03:44:03;;;;;;;;;;;8.00;77.00;;;;;;5073772;28;19912;-28
2023/03/29 03:46:28;;;;;;;;;;;8.00;77.10;;;;;;5073731;28;19919;-26
2023/03/29 03:48:54;;;;;;;;;;;8.00;77.10;;;;;;5073886;28;19909;-26
2023/03/29 03:51:19;;;;;;;;;;;8.10;77.30;;;;;;5073770;28;19912;-30
2023/03/29 03:53:45;;;;;;;;;;;8.10;77.30;;;;;;5072345;28;19947;-35
2023/03/29 03:56:12;;;;;;;;;;;8.10;77.40;;;;;;5073969;28;20330;-24
2023/03/29 03:58:37;;;;;;;;;;;8.10;77.50;;;;;;5073928;28;20292;-27
2023/03/29 04:01:04;;;;;;;;;;;8.10;77.50;;;;;;5073606;28;19908;-28
2023/03/29 04:03:30;;;;;;;;;;;8.10;77.50;;;;;;5073325;28;19926;-28
2023/03/29 04:05:58;;;;;;;;;;;8.10;77.50;;;;;;5073364;28;19958;-28
2023/03/29 04:08:23;;;;;;;;;;;8.20;77.60;;;;;;5073348;28;19931;-27
2023/03/29 04:10:52;;;;;;;;;;;8.10;77.50;;;;;;5073567;28;20348;-32
2023/03/29 04:13:18;;;;;;;;;;;8.10;77.60;;;;;;5073576;28;20110;-26
2023/03/29 04:15:44;;;;;;;;;;;8.20;77.70;;;;;;5072839;28;20692;-30
2023/03/29 04:18:10;;;;;;;;;;;8.20;77.70;;;;;;5072634;28;19986;-25
2023/03/29 04:20:36;;;;;;;;;;;8.20;77.80;;;;;;5073164;28;19908;-37
2023/03/29 04:23:02;;;;;;;;;;;8.20;77.80;;;;;;5073038;28;20266;-26
2023/03/29 04:25:28;;;;;;;;;;;8.20;77.80;;;;;;5073468;28;20006;-31
2023/03/29 04:27:54;;;;;;;;;;;8.20;77.90;;;;;;5073032;28;19908;-26
2023/03/29 04:30:19;;;;;;;;;;;8.20;77.90;;;;;;5072945;28;19908;-25
2023/03/29 04:32:46;;;;;;;;;;;8.20;77.90;;;;;;5073041;28;19909;-29
2023/03/29 04:35:11;;;;;;;;;;;8.20;77.90;;;;;;5072911;28;19939;-30
2023/03/29 04:37:39;;;;;;;;;;;8.30;78.00;;;;;;5072892;28;19912;-31
2023/03/29 04:40:07;;;;;;;;;;;8.30;78.00;;;;;;5072792;28;20128;-27
2023/03/29 04:42:33;;;;;;;;;;;8.30;78.00;;;;;;5072720;28;19915;-26
2023/03/29 04:44:59;;;;;;;;;;;8.30;78.00;;;;;;5073094;28;19913;-26
2023/03/29 04:47:28;;;;;;;;;;;8.30;78.00;;;;;;5072794;28;19908;-31
2023/03/29 04:49:54;;;;;;;;;;;8.30;78.00;;;;;;5072450;28;19951;-34
2023/03/29 04:52:19;;;;;;;;;;;8.40;78.00;;;;;;5072827;28;19970;-26
2023/03/29 04:54:45;;;;;;;;;;;8.30;78.00;;;;;;5072566;28;19936;-26
2023/03/29 04:57:11;;;;;;;;;;;8.40;78.00;;;;;;5072382;28;19909;-29
2023/03/29 04:59:36;;;;;;;;;;;8.30;77.90;;;;;;5072477;28;19924;-28
2023/03/29 05:02:03;;;;;;;;;;;8.40;78.00;;;;;;5072424;28;20266;-35
2023/03/29 05:04:29;;;;;;;;;;;8.40;78.00;;;;;;5072622;28;19912;-25
2023/03/29 05:06:56;;;;;;;;;;;8.40;78.00;;;;;;5072673;28;19916;-39
2023/03/29 05:09:22;;;;;;;;;;;8.40;78.00;;;;;;5072226;28;19908;-29
2023/03/29 05:11:47;;;;;;;;;;;8.40;78.00;;;;;;5072271;28;19924;-38
2023/03/29 05:14:13;;;;;;;;;;;8.40;78.00;;;;;;5072358;28;19909;-26
2023/03/29 05:16:40;;;;;;;;;;;8.40;78.00;;;;;;5072249;28;20007;-26
2023/03/29 05:19:06;;;;;;;;;;;8.40;78.00;;;;;;5072042;28;19908;-30
2023/03/29 05:21:32;;;;;;;;;;;8.40;78.00;;;;;;5071974;28;19916;-28
2023/03/29 05:23:57;;;;;;;;;;;8.40;78.00;;;;;;5072555;28;19916;-30
2023/03/29 05:26:23;;;;;;;;;;;8.40;78.00;;;;;;5072060;28;20271;-30
2023/03/29 05:28:49;;;;;;;;;;;8.40;78.00;;;;;;5071569;28;19913;-28
2023/03/29 05:31:15;;;;;;;;;;;8.40;78.00;;;;;;5072184;28;20372;-28
2023/03/29 05:33:41;;;;;;;;;;;8.50;78.10;;;;;;5072190;28;19966;-34
2023/03/29 05:36:07;;;;;;;;;;;8.50;78.00;;;;;;5072223;28;19987;-29
2023/03/29 05:38:33;;;;;;;;;;;8.50;78.00;;;;;;5071953;28;20358;-29
2023/03/29 05:40:59;;;;;;;;;;;8.50;78.00;;;;;;5072240;28;19915;-28
2023/03/29 05:43:25;;;;;;;;;;;8.50;77.90;;;;;;5071807;28;19912;-42
2023/03/29 05:45:52;;;;;;;;;;;8.50;77.90;;;;;;5072247;28;19944;-30
2023/03/29 05:48:17;;;;;;;;;;;8.50;77.90;;;;;;5071973;28;19912;-26
2023/03/29 05:50:45;;;;;;;;;;;8.60;77.90;;;;;;5071747;28;20363;-28
2023/03/29 05:53:11;;;;;;;;;;;8.60;77.80;;;;;;5072010;28;19916;-24
2023/03/29 05:55:36;;;;;;;;;;;8.60;77.80;;;;;;5071930;28;19909;-26
2023/03/29 05:58:02;;;;;;;;;;;8.60;77.80;;;;;;5071742;28;19909;-28
2023/03/29 06:00:28;;;;;;;;;;;8.60;77.80;;;;;;5071524;28;19975;-34
2023/03/29 06:02:57;;;;;;;;;;;8.70;77.80;;;;;;5071796;28;19909;-27
2023/03/29 06:05:23;;;;;;;;;;;8.70;77.80;;;;;;5071625;28;19984;-34
2023/03/29 06:07:48;;;;;;;;;;;8.70;77.70;;;;;;5071596;28;19999;-25
2023/03/29 06:10:14;;;;;;;;;;;8.70;77.70;;;;;;5071640;28;19912;-27
2023/03/29 06:12:40;;;;;;;;;;;8.70;77.70;;;;;;5071544;28;19916;-28
2023/03/29 06:15:07;;;;;;;;;;;8.70;77.60;;;;;;5071889;28;19962;-31
2023/03/29 06:17:33;;;;;;;;;;;8.80;77.70;;;;;;5071807;28;20347;-28
2023/03/29 06:19:59;;;;;;;;;;;8.80;77.60;;;;;;5071349;28;19951;-27
2023/03/29 06:22:24;;;;;;;;;;;8.80;77.50;;;;;;5071395;28;20020;-29
2023/03/29 06:24:50;;;;;;;;;;;8.80;77.50;;;;;;5071476;28;19919;-26
2023/03/29 06:27:15;;;;;;;;;;;8.90;77.50;;;;;;5071446;28;20050;-31
2023/03/29 06:29:41;;;;;;;;;;;8.90;77.50;;;;;;5071393;28;20003;-28
2023/03/29 06:32:06;;;;;;;;;;;8.90;77.30;;;;;;5071721;28;19967;-30
2023/03/29 06:34:31;;;;;;;;;;;9.00;77.30;;;;;;5071520;28;19934;-31
2023/03/29 06:36:57;;;;;;;;;;;9.00;77.20;;;;;;5071286;28;19970;-29
2023/03/29 06:39:25;;;;;;;;;;;9.00;77.10;;;;;;5071646;28;20011;-33
2023/03/29 06:41:50;;;;;;;;;;;9.10;77.10;;;;;;5075498;28;19965;-27
2023/03/29 06:44:16;;;;;;;;;;;9.10;77.10;;;;;;5075054;28;19912;-29
2023/03/29 06:46:41;;;;;;;;;;;9.20;77.00;;;;;;5075412;28;19955;-37
2023/03/29 06:49:07;;;;;;;;;;;9.30;76.90;;;;;;5075280;28;19912;-31
2023/03/29 06:51:33;;;;;;;;;;;9.30;76.90;;;;;;5074982;28;19912;-32
2023/03/29 06:53:58;;;;;;;;;;;9.40;76.90;;;;;;5075172;28;19908;-28
2023/03/29 06:56:24;;;;;;;;;;;9.40;76.80;;;;;;5075106;28;19908;-28
2023/03/29 06:58:50;;;;;;;;;;;9.40;76.80;;;;;;5074908;28;19928;-28
2023/03/29 07:01:15;;;;;;;;;;;9.40;76.80;;;;;;5074887;28;19908;-36
2023/03/29 07:03:42;;;;;;;;;;;9.40;77.00;;;;;;5075225;28;19912;-27
2023/03/29 07:06:11;;;;;;;;;;;9.40;77.00;;;;;;5075057;28;19909;-28
2023/03/29 07:08:42;;;;;;;;;;;9.50;77.10;;;;;;5075065;28;20360;-34
2023/03/29 07:11:09;;;;;;;;;;;9.50;77.20;;;;;;5074765;28;20003;-30
2023/03/29 07:13:34;;;;;;;;;;;9.50;77.20;;;;;;5074950;28;20368;-29
2023/03/29 07:16:00;;;;;;;;;;;9.60;77.30;;;;;;5074524;28;20012;-26
2023/03/29 07:18:25;;;;;;;;;;;9.50;77.30;;;;;;5074611;28;19909;-28
2023/03/29 07:20:51;;;;;;;;;;;9.60;77.30;;;;;;5074749;28;19909;-26
2023/03/29 07:23:17;;;;;;;;;;;9.60;77.30;;;;;;5074256;28;20431;-28
2023/03/29 07:25:43;;;;;;;;;;;9.60;77.40;;;;;;5074859;28;19908;-27
2023/03/29 07:28:09;;;;;;;;;;;9.60;77.30;;;;;;5074348;28;20372;-25
2023/03/29 07:30:35;;;;;;;;;;;9.70;77.40;;;;;;5074427;28;20007;-33
2023/03/29 07:33:01;;;;;;;;;;;9.60;77.30;;;;;;5074538;28;19965;-39
2023/03/29 07:35:27;;;;;;;;;;;9.70;77.30;;;;;;5074416;28;20401;-27
2023/03/29 07:37:54;;;;;;;;;;;9.70;77.40;;;;;;5074603;28;19915;-30
2023/03/29 07:40:22;;;;;;;;;;;9.80;77.40;;;;;;5074217;28;19908;-29
2023/03/29 07:42:51;;;;;;;;;;;9.90;77.30;;;;;;5074214;28;20032;-36
2023/03/29 07:45:19;;;;;;;;;;;10.00;77.20;;;;;;5074387;28;19915;-29
2023/03/29 07:47:48;;;;;;;;;;;10.00;77.10;;;;;;5074313;28;19909;-31
2023/03/29 07:50:17;;;;;;;;;;;10.10;77.10;;;;;;5073879;28;20287;-28
2023/03/29 07:52:43;;;;;;;;;;;10.10;77.00;;;;;;5073971;28;20250;-28
2023/03/29 07:55:10;;;;;;;;;;;10.20;76.90;;;;;;5074118;28;20366;-40
2023/03/29 07:57:36;;;;;;;;;;;10.30;76.80;;;;;;5074157;28;19909;-28
2023/03/29 08:00:18;;;;;;;;;;;10.30;76.60;;;;;;5074037;28;20415;-34
2023/03/29 08:02:44;;;;;;;;;;;10.40;76.60;;;;;;5073794;28;19908;-29
2023/03/29 08:05:11;;;;;;;;;;;10.40;76.50;;;;;;5073725;28;20280;-27
2023/03/29 08:07:37;;;;;;;;;;;10.50;76.60;;;;;;5074004;28;19961;-28
2023/03/29 08:10:03;;;;;;;;;;;10.50;76.30;;;;;;5073641;28;19961;-34
2023/03/29 08:12:29;;;;;;;;;;;10.60;76.20;;;;;;5073554;28;19912;-28
2023/03/29 08:14:54;;;;;;;;;;;10.60;76.10;;;;;;5073650;28;19909;-45
2023/03/29 08:17:20;;;;;;;;;;;10.60;76.00;;;;;;5073275;28;19908;-47
2023/03/29 08:19:46;;;;;;;;;;;10.70;76.00;;;;;;5073697;28;19941;-43
2023/03/29 08:22:11;;;;;;;;;;;10.70;76.00;;;;;;5073268;28;19920;-47
2023/03/29 08:24:37;;;;;;;;;;;10.60;75.80;;;;;;5073361;28;20434;-37
2023/03/29 08:27:02;;;;;;;;;;;10.60;75.90;;;;;;5072236;28;19908;-40
2023/03/29 08:29:30;;;;;;;;;;;10.70;75.90;;;;;;5073653;28;19969;-38
2023/03/29 08:31:56;;;;;;;;;;;10.70;75.90;;;;;;5073451;28;19909;-37
2023/03/29 08:34:21;;;;;;;;;;;10.70;75.90;;;;;;5073869;28;20008;-40
2023/03/29 08:36:47;;;;;;;;;;;10.80;75.80;;;;;;5073396;28;20387;-36
2023/03/29 08:39:12;;;;;;;;;;;10.80;75.80;;;;;;5073305;28;19958;-41
2023/03/29 08:41:57;;;;;;;;;;;10.80;75.80;;;;;;5073348;28;19909;-45
2023/03/29 08:44:22;;;;;;;;;;;10.80;75.80;;;;;;5073115;28;19919;-40
2023/03/29 08:47:08;;;;;;;;;;;10.80;75.80;;;;;;5073121;28;19909;-37
2023/03/29 08:49:35;;;;;;;;;;;10.90;75.80;;;;;;5073090;28;20367;-39
2023/03/29 08:52:03;;;;;;;;;;;11.00;75.70;;;;;;5072996;28;19992;-41
2023/03/29 08:54:33;;;;;;;;;;;11.00;75.60;;;;;;5072952;28;19912;-37
2023/03/29 08:57:09;;;;;;;;;;;11.20;75.50;;;;;;5072698;28;19913;-37
2023/03/29 08:59:36;;;;;;;;;;;11.30;75.40;;;;;;5072931;28;19958;-38
2023/03/29 09:02:03;;;;;;;;;;;11.40;75.30;;;;;;5072743;28;19915;-40
2023/03/29 09:04:31;;;;;;;;;;;11.50;75.10;;;;;;5072900;28;19912;-38
2023/03/29 09:06:57;;;;;;;;;;;11.50;75.00;;;;;;5072787;28;19909;-38
2023/03/29 09:09:27;;;;;;;;;;;11.60;75.00;;;;;;5072488;28;20379;-40
2023/03/29 09:12:05;;;;;;;;;;;11.70;75.00;;;;;;5072944;28;19909;-41
2023/03/29 09:14:31;;;;;;;;;;;11.70;74.90;;;;;;5072578;28;19909;-40
2023/03/29 09:16:56;;;;;;;;;;;11.80;75.00;;;;;;5072453;28;20430;-46
2023/03/29 09:19:32;;;;;;;;;;;11.70;75.00;;;;;;5072528;28;19999;-39
2023/03/29 09:21:58;;;;;;;;;;;11.80;75.20;;;;;;5072329;28;20388;-36
2023/03/29 09:24:36;;;;;;;;;;;11.80;75.40;;;;;;5071146;28;19950;-37
2023/03/29 09:27:08;;;;;;;;;;;11.70;75.40;;;;;;5072805;28;19932;-36
2023/03/29 09:29:40;;;;;;;;;;;11.80;75.70;;;;;;5072355;28;20224;-36
2023/03/29 09:32:11;;;;;;;;;;;11.80;75.90;;;;;;5072241;28;19958;-34
2023/03/29 09:34:42;;;;;;;;;;;11.80;76.10;;;;;;5072243;28;19916;-37
2023/03/29 09:37:14;;;;;;;;;;;11.90;76.80;;;;;;5072192;28;20372;-35
2023/03/29 09:39:40;;;;;;;;;;;11.90;76.10;;;;;;5072495;28;19908;-37
2023/03/29 09:42:07;;;;;;;;;;;12.00;76.10;;;;;;5072218;28;20390;-36
2023/03/29 09:44:42;;;;;;;;;;;12.00;76.10;;;;;;5072378;28;19912;-39
2023/03/29 09:47:16;;;;;;;;;;;12.10;76.10;;;;;;5072099;28;19995;-35
2023/03/29 09:49:44;;;;;;;;;;;12.20;76.00;;;;;;5072024;28;19954;-39
2023/03/29 09:52:11;;;;;;;;;;;12.30;76.00;;;;;;5072301;28;19962;-42
2023/03/29 09:54:37;;;;;;;;;;;12.30;76.00;;;;;;5072420;28;19940;-37
2023/03/29 09:57:02;;;;;;;;;;;12.40;76.20;;;;;;5071999;28;19955;-44
2023/03/29 09:59:28;;;;;;;;;;;12.40;76.20;;;;;;5071972;28;19908;-36
2023/03/29 10:02:04;;;;;;;;;;;12.50;76.20;;;;;;5071929;28;19909;-36
2023/03/29 10:04:29;;;;;;;;;;;12.50;76.10;;;;;;5072185;28;20292;-36
2023/03/29 10:06:57;;;;;;;;;;;12.50;76.20;;;;;;5072043;28;19978;-36
2023/03/29 10:09:26;;;;;;;;;;;12.50;76.20;;;;;;5072114;28;20360;-37
2023/03/29 10:11:53;;;;;;;;;;;12.50;76.20;;;;;;5071693;28;19908;-37
2023/03/29 10:14:21;;;;;;;;;;;12.50;76.40;;;;;;5072253;28;19908;-36
2023/03/29 10:16:53;;;;;;;;;;;12.50;76.40;;;;;;5075862;28;19908;-35
2023/03/29 10:19:30;;;;;;;;;;;12.50;76.40;;;;;;5075837;28;19977;-35
2023/03/29 10:21:57;;;;;;;;;;;12.50;76.50;;;;;;5075783;28;19917;-35
2023/03/29 10:24:25;;;;;;;;;;;12.60;76.50;;;;;;5075768;28;19912;-37
2023/03/29 10:26:55;;;;;;;;;;;12.70;76.50;;;;;;5074660;28;19908;-36
2023/03/29 10:29:24;;;;;;;;;;;12.70;76.40;;;;;;5075677;28;19909;-45
2023/03/29 10:31:50;;;;;;;;;;;12.80;76.40;;;;;;5075586;28;19909;-35
2023/03/29 10:34:16;;;;;;;;;;;12.90;76.40;;;;;;5075966;28;19908;-36
2023/03/29 10:36:52;;;;;;;;;;;13.00;76.20;;;;;;5076012;28;19999;-37
2023/03/29 10:39:18;;;;;;;;;;;13.00;76.10;;;;;;5075781;28;19913;-37
2023/03/29 10:41:43;;;;;;;;;;;13.10;76.00;;;;;;5075537;28;19931;-38
2023/03/29 10:44:24;;;;;;;;;;;13.20;76.00;;;;;;5075541;28;20368;-39
2023/03/29 10:46:50;;;;;;;;;;;13.20;75.90;;;;;;5075755;28;19916;-37
2023/03/29 10:49:17;;;;;;;;;;;13.20;75.90;;;;;;5075490;28;19908;-37
2023/03/29 10:51:48;;;;;;;;;;;13.20;76.60;;;;;;5074005;28;19962;-37
2023/03/29 10:54:14;;;;;;;;;;;13.20;76.00;;;;;;5075499;28;19912;-37
2023/03/29 10:56:49;;;;;;;;;;;13.20;76.10;;;;;;5075288;28;19908;-41
2023/03/29 10:59:17;;;;;;;;;;;13.20;76.30;;;;;;5075608;28;20383;-36
2023/03/29 11:01:43;;;;;;;;;;;13.20;77.00;;;;;;5075416;28;19932;-37
2023/03/29 11:04:14;;;;;;;;;;;13.10;76.60;;;;;;5074986;28;19989;-35
2023/03/29 11:06:56;;;;;;;;;;;13.00;76.90;;;;;;5075424;28;20378;-36
2023/03/29 11:09:30;;;;;;;;;;;13.00;77.00;;;;;;5075287;28;19915;-37
2023/03/29 11:12:19;;;;;;;;;;;13.00;77.00;;;;;;5075154;28;19915;-37
2023/03/29 11:14:48;;;;;;;;;;;13.20;77.00;;;;;;5074180;28;20284;-39
2023/03/29 11:17:20;;;;;;;;;;;13.30;76.90;;;;;;5074937;28;19916;-39
2023/03/29 11:19:48;;;;;;;;;;;13.40;76.70;;;;;;5074875;28;19915;-35
2023/03/29 11:22:23;;;;;;;;;;;13.50;76.50;;;;;;5074854;28;19921;-36
2023/03/29 11:24:48;;;;;;;;;;;13.60;76.50;;;;;;5074705;28;19912;-36
2023/03/29 11:27:33;;;;;;;;;;;13.60;76.40;;;;;;5074528;28;20284;-38
2023/03/29 11:30:08;;;;;;;;;;;13.60;76.50;;;;;;5074849;28;19909;-41
2023/03/29 11:32:36;;;;;;;;;;;13.60;76.50;;;;;;5075305;28;19908;-37
2023/03/29 11:35:11;;;;;;;;;;;13.70;76.50;;;;;;5074746;28;19909;-39
2023/03/29 11:37:43;;;;;;;;;;;13.80;76.40;;;;;;5074581;28;19916;-35
2023/03/29 11:40:31;;;;;;;;;;;13.80;76.30;;;;;;5074772;28;20072;-36
2023/03/29 11:42:58;;;;;;;;;;;13.80;76.30;;;;;;5074659;28;19954;-37
2023/03/29 11:45:27;;;;;;;;;;;13.80;77.00;;;;;;5073262;28;19908;-39
2023/03/29 11:47:55;;;;;;;;;;;13.70;76.40;;;;;;5074274;28;20013;-37
2023/03/29 11:50:24;;;;;;;;;;;13.60;76.50;;;;;;5074111;28;19997;-37
2023/03/29 11:52:54;;;;;;;;;;;13.50;76.40;;;;;;5074618;28;20253;-36
2023/03/29 11:55:27;;;;;;;;;;;13.50;76.60;;;;;;5074168;28;20378;-36
2023/03/29 11:57:59;;;;;;;;;;;13.50;76.70;;;;;;5074216;28;19909;-37
2023/03/29 12:00:48;;;;;;;;;;;13.50;76.70;;;;;;5074173;28;20165;-38
2023/03/29 12:03:31;;;;;;;;;;;13.50;76.70;;;;;;5073826;28;19912;-38
2023/03/29 12:06:07;;;;;;;;;;;13.50;76.70;;;;;;5073843;28;20442;-35
2023/03/29 12:08:52;;;;;;;;;;;13.50;76.70;;;;;;5073732;28;19946;-37
2023/03/29 12:11:26;;;;;;;;;;;13.50;76.70;;;;;;5073170;28;19916;-37
2023/03/29 12:14:03;;;;;;;;;;;13.60;76.60;;;;;;5073907;28;19908;-38
2023/03/29 12:16:30;;;;;;;;;;;13.70;76.50;;;;;;5073357;28;19912;-34
2023/03/29 12:18:58;;;;;;;;;;;13.70;76.40;;;;;;5073763;28;20372;-36
2023/03/29 12:21:25;;;;;;;;;;;13.70;76.50;;;;;;5073450;28;19916;-39
2023/03/29 12:23:51;;;;;;;;;;;13.60;76.50;;;;;;5073502;28;20007;-38
2023/03/29 12:26:27;;;;;;;;;;;13.60;76.60;;;;;;5073897;28;19994;-36
2023/03/29 12:29:04;;;;;;;;;;;13.60;76.70;;;;;;5073397;28;20002;-38
2023/03/29 12:31:30;;;;;;;;;;;13.50;76.90;;;;;;5073327;28;19913;-36
2023/03/29 12:33:55;;;;;;;;;;;13.50;77.00;;;;;;5073567;28;19915;-36
2023/03/29 12:36:34;;;;;;;;;;;13.50;77.00;;;;;;5073105;28;20008;-36
2023/03/29 12:39:00;;;;;;;;;;;13.50;77.10;;;;;;5072551;28;19909;-46
2023/03/29 12:41:26;;;;;;;;;;;13.50;77.10;;;;;;5072892;28;19908;-47
2023/03/29 12:43:52;;;;;;;;;;;13.50;77.10;;;;;;5072976;28;19916;-52
2023/03/29 12:46:21;;;;;;;;;;;13.60;77.20;;;;;;5073085;28;19962;-51
2023/03/29 12:48:49;;;;;;;;;;;13.60;77.10;;;;;;5072942;28;19915;-47
2023/03/29 12:51:17;;;;;;;;;;;13.60;77.30;;;;;;5072698;28;19931;-50
2023/03/29 12:53:52;;;;;;;;;;;13.60;77.30;;;;;;5072847;28;19916;-40
2023/03/29 12:56:22;;;;;;;;;;;13.50;77.30;;;;;;5073071;28;20328;-39
2023/03/29 12:58:50;;;;;;;;;;;13.50;77.30;;;;;;5073177;28;20364;-44
2023/03/29 13:01:22;;;;;;;;;;;13.50;77.40;;;;;;5073008;28;19916;-40
2023/03/29 13:03:54;;;;;;;;;;;13.50;77.50;;;;;;5073073;28;20320;-40
2023/03/29 13:06:29;;;;;;;;;;;13.40;77.60;;;;;;5072670;28;19974;-43
2023/03/29 13:09:15;;;;;;;;;;;13.40;78.30;;;;;;5072926;28;19908;-40
2023/03/29 13:11:41;;;;;;;;;;;13.40;77.70;;;;;;5071814;28;19908;-46
2023/03/29 13:14:15;;;;;;;;;;;13.40;77.80;;;;;;5072599;28;19908;-45
2023/03/29 13:16:41;;;;;;;;;;;13.40;77.90;;;;;;5072324;28;19954;-39
2023/03/29 13:19:13;;;;;;;;;;;13.40;77.90;;;;;;5072462;28;19962;-39
2023/03/29 13:21:39;;;;;;;;;;;13.50;78.00;;;;;;5072084;28;19929;-40
2023/03/29 13:24:25;;;;;;;;;;;13.50;77.80;;;;;;5072512;28;20294;-40
2023/03/29 13:26:56;;;;;;;;;;;13.60;77.60;;;;;;5071442;28;20322;-41
2023/03/29 13:29:21;;;;;;;;;;;13.80;77.50;;;;;;5072584;28;19915;-55
2023/03/29 13:31:52;;;;;;;;;;;14.00;77.40;;;;;;5072207;28;20365;-39
2023/03/29 13:34:27;;;;;;;;;;;14.10;77.20;;;;;;5072112;28;19912;-40
2023/03/29 13:37:01;;;;;;;;;;;14.20;77.10;;;;;;5072112;28;19946;-39
2023/03/29 13:39:28;;;;;;;;;;;14.30;77.00;;;;;;5072455;28;19995;-41
2023/03/29 13:42:04;;;;;;;;;;;14.40;76.90;;;;;;5072123;28;19912;-41
2023/03/29 13:44:48;;;;;;;;;;;14.40;76.70;;;;;;5072174;28;20360;-40
2023/03/29 13:47:28;;;;;;;;;;;14.50;76.60;;;;;;5072166;28;19908;-43
2023/03/29 13:49:58;;;;;;;;;;;14.60;76.60;;;;;;5071972;28;19961;-53
2023/03/29 13:52:26;;;;;;;;;;;14.60;76.50;;;;;;5071844;28;19912;-40
2023/03/29 13:54:51;;;;;;;;;;;14.60;76.50;;;;;;5072340;28;19932;-40
2023/03/29 13:57:49;;;;;;;;;;;14.70;76.30;;;;;;5072178;28;19917;-40
2023/03/29 14:00:21;;;;;;;;;;;14.70;76.30;;;;;;5070534;28;19948;-41
2023/03/29 14:02:49;;;;;;;;;;;14.80;76.30;;;;;;5072360;28;20282;-41
2023/03/29 14:05:16;;;;;;;;;;;14.80;76.20;;;;;;5072334;28;19912;-42
2023/03/29 14:07:49;;;;;;;;;;;14.90;75.80;;;;;;5072207;28;19916;-38
2023/03/29 14:10:16;;;;;;;;;;;14.90;75.70;;;;;;5072198;28;19943;-41
2023/03/29 14:12:42;;;;;;;;;;;14.90;75.80;;;;;;5072085;28;19908;-40
2023/03/29 14:15:17;;;;;;;;;;;14.90;75.90;;;;;;5071819;28;20415;-37
2023/03/29 14:17:42;;;;;;;;;;;14.80;76.00;;;;;;5071674;28;19948;-43
2023/03/29 14:20:08;;;;;;;;;;;14.80;76.00;;;;;;5071812;28;19927;-40
2023/03/29 14:22:34;;;;;;;;;;;14.80;76.10;;;;;;5071617;28;19921;-39
2023/03/29 14:25:01;;;;;;;;;;;14.70;76.00;;;;;;5071690;28;19923;-40
2023/03/29 14:27:29;;;;;;;;;;;14.80;76.00;;;;;;5071632;28;20423;-38
2023/03/29 14:29:54;;;;;;;;;;;14.80;76.00;;;;;;5071531;28;19927;-40
2023/03/29 14:32:27;;;;;;;;;;;14.80;76.00;;;;;;5071653;28;19916;-40